Time;durP1;ratioP1;P1;durP2;ratioP2;P2;SDS_P1;SDS_P2;PMS_P1;PMS_P2;Temp;Humidity;BMP_temperature;BMP_pressure;BME280_temperature;BME280_humidity;BME280_pressure;Samples;Min_cycle;Max_cycle;Signal;HPM_P1;HPM_P2
2023/06/24 00:00:45;;;;;;;4.60;4.30;;;;;;;;;;2073642;28;20430;-76
2023/06/24 00:02:04;;;;;;;5.43;4.00;;;;;;;;;;2071958;28;20034;-77
2023/06/24 00:03:23;;;;;;;4.78;4.20;;;;;;;;;;2074095;28;20402;-76
2023/06/24 00:04:42;;;;;;;4.68;3.95;;;;;;;;;;2065313;28;20034;-76
2023/06/24 00:06:03;;;;;;;4.63;3.78;;;;;;;;;;2063965;28;20030;-77
2023/06/24 00:07:22;;;;;;;6.03;4.28;;;;;;;;;;2073732;28;20021;-77
2023/06/24 00:08:41;;;;;;;5.22;4.32;;;;;;;;;;2063852;28;20677;-77
2023/06/24 00:10:00;;;;;;;6.85;4.10;;;;;;;;;;2070872;28;20480;-76
2023/06/24 00:11:19;;;;;;;5.68;4.18;;;;;;;;;;2063958;28;20030;-77
2023/06/24 00:12:39;;;;;;;4.78;4.05;;;;;;;;;;2070435;28;20038;-77
2023/06/24 00:13:57;;;;;;;9.80;5.25;;;;;;;;;;2073869;28;20021;-78
2023/06/24 00:15:18;;;;;;;6.72;4.38;;;;;;;;;;2072460;28;20356;-77
2023/06/24 00:16:37;;;;;;;6.20;4.20;;;;;;;;;;2064481;28;20030;-77
2023/06/24 00:18:04;;;;;;;5.60;4.18;;;;;;;;;;2070244;28;20025;-77
2023/06/24 00:19:25;;;;;;;4.95;4.43;;;;;;;;;;2073650;28;20648;-77
2023/06/24 00:20:43;;;;;;;5.97;4.45;;;;;;;;;;2073753;28;20042;-76
2023/06/24 00:22:03;;;;;;;8.20;4.10;;;;;;;;;;2064831;28;20030;-76
2023/06/24 00:23:26;;;;;;;5.07;3.92;;;;;;;;;;2059800;28;20428;-75
2023/06/24 00:24:45;;;;;;;6.57;4.90;;;;;;;;;;2073186;28;20042;-77
2023/06/24 00:26:04;;;;;;;4.57;4.18;;;;;;;;;;2065884;28;20034;-77
2023/06/24 00:27:23;;;;;;;4.30;4.00;;;;;;;;;;2061369;28;20030;-76
2023/06/24 00:28:42;;;;;;;4.50;4.10;;;;;;;;;;2061712;28;20034;-77
2023/06/24 00:30:01;;;;;;;5.15;4.35;;;;;;;;;;2061834;28;20030;-77
2023/06/24 00:31:20;;;;;;;4.20;3.90;;;;;;;;;;2073996;28;20026;-76
2023/06/24 00:32:39;;;;;;;4.53;4.13;;;;;;;;;;2066779;28;20026;-76
2023/06/24 00:33:58;;;;;;;3.78;3.58;;;;;;;;;;2063269;28;20093;-77
2023/06/24 00:35:17;;;;;;;5.40;4.00;;;;;;;;;;2064499;28;20030;-77
2023/06/24 00:36:38;;;;;;;4.22;3.92;;;;;;;;;;2069270;28;20454;-77
2023/06/24 00:37:58;;;;;;;4.47;3.72;;;;;;;;;;2074421;28;20021;-77
2023/06/24 00:39:17;;;;;;;4.80;3.55;;;;;;;;;;2074715;28;20057;-77
2023/06/24 00:40:37;;;;;;;3.90;3.53;;;;;;;;;;2073238;28;20034;-77
2023/06/24 00:41:56;;;;;;;4.05;3.75;;;;;;;;;;2064739;28;20105;-76
2023/06/24 00:43:16;;;;;;;3.80;3.60;;;;;;;;;;2063398;28;20033;-76
2023/06/24 00:44:37;;;;;;;3.90;3.47;;;;;;;;;;2061585;28;20042;-76
2023/06/24 00:45:57;;;;;;;3.97;3.67;;;;;;;;;;2060081;28;20109;-76
2023/06/24 00:47:16;;;;;;;6.82;3.70;;;;;;;;;;2070162;28;20038;-76
2023/06/24 00:48:35;;;;;;;4.10;3.75;;;;;;;;;;2073585;28;20026;-77
2023/06/24 00:49:54;;;;;;;3.60;3.30;;;;;;;;;;2073077;28;20037;-77
2023/06/24 00:51:13;;;;;;;3.50;3.17;;;;;;;;;;2064188;28;20030;-76
2023/06/24 00:52:32;;;;;;;3.83;3.47;;;;;;;;;;2070368;28;20423;-76
2023/06/24 00:53:54;;;;;;;4.60;3.75;;;;;;;;;;2067513;28;20038;-77
2023/06/24 00:55:14;;;;;;;3.83;3.42;;;;;;;;;;2072497;28;20038;-77
2023/06/24 00:56:42;;;;;;;3.88;3.58;;;;;;;;;;2067067;28;20039;-77
2023/06/24 00:58:01;;;;;;;3.33;3.13;;;;;;;;;;2065163;28;20030;-77
2023/06/24 00:59:20;;;;;;;4.38;3.20;;;;;;;;;;2062992;28;20065;-76
2023/06/24 01:00:40;;;;;;;3.70;3.40;;;;;;;;;;2068654;28;20030;-77
2023/06/24 01:02:01;;;;;;;3.47;3.20;;;;;;;;;;2062705;28;20483;-77
2023/06/24 01:03:20;;;;;;;3.35;2.90;;;;;;;;;;2062781;28;20027;-76
2023/06/24 01:04:39;;;;;;;3.13;2.92;;;;;;;;;;2061918;28;20507;-76
2023/06/24 01:05:58;;;;;;;3.80;2.53;;;;;;;;;;2060306;28;20034;-75
2023/06/24 01:07:17;;;;;;;4.03;3.15;;;;;;;;;;2062942;28;20554;-76
2023/06/24 01:08:37;;;;;;;3.22;3.00;;;;;;;;;;2068557;28;20034;-76
2023/06/24 01:09:56;;;;;;;2.58;2.40;;;;;;;;;;2075551;28;20030;-76
2023/06/24 01:11:15;;;;;;;2.55;2.35;;;;;;;;;;2064483;28;20113;-76
2023/06/24 01:12:35;;;;;;;2.60;2.40;;;;;;;;;;2068538;28;20515;-76
2023/06/24 01:13:54;;;;;;;2.50;2.30;;;;;;;;;;2067002;28;20163;-78
2023/06/24 01:15:13;;;;;;;2.55;2.35;;;;;;;;;;2070621;28;20045;-77
2023/06/24 01:16:48;;;;;;;2.45;2.25;;;;;;;;;;2074847;28;20030;-76
2023/06/24 01:18:10;;;;;;;3.22;1.98;;;;;;;;;;2074963;28;20100;-77
2023/06/24 01:19:47;;;;;;;2.78;2.08;;;;;;;;;;2067887;28;20026;-77
2023/06/24 01:21:21;;;;;;;2.72;1.90;;;;;;;;;;2073682;28;20034;-77
2023/06/24 01:22:58;;;;;;;2.63;2.45;;;;;;;;;;2073080;28;21353;-76
2023/06/24 01:24:17;;;;;;;2.33;2.10;;;;;;;;;;2073285;28;20105;-77
2023/06/24 01:25:42;;;;;;;3.30;2.33;;;;;;;;;;2070767;28;20097;-77
2023/06/24 01:27:19;;;;;;;6.82;2.00;;;;;;;;;;2063880;28;20105;-77
2023/06/24 01:28:41;;;;;;;2.00;1.90;;;;;;;;;;2072499;28;20037;-77
2023/06/24 01:30:01;;;;;;;2.20;2.00;;;;;;;;;;2071288;28;20042;-76
2023/06/24 01:31:21;;;;;;;1.90;1.80;;;;;;;;;;2064958;28;20026;-76
2023/06/24 01:32:47;;;;;;;1.60;1.50;;;;;;;;;;2061129;28;20034;-76
2023/06/24 01:34:27;;;;;;;2.08;1.98;;;;;;;;;;2070372;28;20030;-77
2023/06/24 01:35:47;;;;;;;2.10;1.90;;;;;;;;;;2074360;28;20033;-76
2023/06/24 01:37:26;;;;;;;2.15;1.95;;;;;;;;;;2065079;28;20027;-76
2023/06/24 01:38:54;;;;;;;1.83;1.73;;;;;;;;;;2063915;28;21041;-77
2023/06/24 01:40:19;;;;;;;1.73;1.55;;;;;;;;;;2062337;28;20406;-78
2023/06/24 01:41:41;;;;;;;1.98;1.77;;;;;;;;;;2064645;28;20431;-77
2023/06/24 01:43:02;;;;;;;1.90;1.80;;;;;;;;;;2072585;28;20053;-77
2023/06/24 01:44:22;;;;;;;1.50;1.40;;;;;;;;;;2063613;28;20058;-77
2023/06/24 01:45:42;;;;;;;1.50;1.40;;;;;;;;;;2070241;28;20042;-77
2023/06/24 01:47:03;;;;;;;1.80;1.70;;;;;;;;;;2064755;28;20031;-76
2023/06/24 01:48:23;;;;;;;2.55;1.80;;;;;;;;;;2063850;28;20018;-78
2023/06/24 01:49:44;;;;;;;2.75;1.60;;;;;;;;;;2068386;28;20025;-77
2023/06/24 01:51:10;;;;;;;1.50;1.40;;;;;;;;;;2067527;28;20026;-77
2023/06/24 01:52:32;;;;;;;1.92;1.67;;;;;;;;;;2061635;28;20022;-77
2023/06/24 01:53:54;;;;;;;2.22;1.83;;;;;;;;;;2070886;28;20840;-78
2023/06/24 01:55:15;;;;;;;1.67;1.58;;;;;;;;;;2063791;28;20102;-78
2023/06/24 01:56:35;;;;;;;1.60;1.50;;;;;;;;;;2063578;28;20042;-79
2023/06/24 01:57:55;;;;;;;1.70;1.60;;;;;;;;;;2070367;28;20069;-78
2023/06/24 01:59:15;;;;;;;1.92;1.83;;;;;;;;;;2075347;28;20033;-77
2023/06/24 02:00:35;;;;;;;1.90;1.52;;;;;;;;;;2062016;28;20030;-77
2023/06/24 02:01:55;;;;;;;1.45;1.35;;;;;;;;;;2070884;28;20022;-77
2023/06/24 02:03:15;;;;;;;1.38;1.27;;;;;;;;;;2066969;28;20030;-77
2023/06/24 02:04:35;;;;;;;1.70;1.60;;;;;;;;;;2072407;28;20399;-77
2023/06/24 02:05:54;;;;;;;2.50;1.25;;;;;;;;;;2075071;28;20026;-77
2023/06/24 02:07:13;;;;;;;1.58;1.48;;;;;;;;;;2073133;28;20029;-78
2023/06/24 02:08:34;;;;;;;1.92;1.83;;;;;;;;;;2069361;28;20468;-78
2023/06/24 02:09:54;;;;;;;2.38;1.35;;;;;;;;;;2072574;28;20025;-78
2023/06/24 02:11:13;;;;;;;1.55;1.45;;;;;;;;;;2065956;28;20172;-77
2023/06/24 02:12:32;;;;;;;2.25;1.65;;;;;;;;;;2062707;28;20029;-77
2023/06/24 02:13:53;;;;;;;1.80;1.65;;;;;;;;;;2059261;28;20500;-78
2023/06/24 02:15:12;;;;;;;1.70;1.60;;;;;;;;;;2062703;28;20038;-77
2023/06/24 02:16:32;;;;;;;2.65;1.73;;;;;;;;;;2071581;28;20566;-78
2023/06/24 02:17:52;;;;;;;1.85;1.60;;;;;;;;;;2075419;28;20054;-77
2023/06/24 02:19:11;;;;;;;1.67;1.58;;;;;;;;;;2073602;28;20029;-77
2023/06/24 02:20:31;;;;;;;3.13;1.60;;;;;;;;;;2063837;28;20037;-78
2023/06/24 02:21:51;;;;;;;2.15;1.95;;;;;;;;;;2067946;28;20030;-77
2023/06/24 02:23:11;;;;;;;1.80;1.55;;;;;;;;;;2066134;28;20023;-76
2023/06/24 02:24:29;;;;;;;1.52;1.45;;;;;;;;;;2069644;28;20018;-76
2023/06/24 02:25:49;;;;;;;2.63;1.90;;;;;;;;;;2064694;28;20026;-77
2023/06/24 02:27:08;;;;;;;1.92;1.73;;;;;;;;;;2060245;28;20134;-77
2023/06/24 02:28:28;;;;;;;2.70;1.60;;;;;;;;;;2068618;28;20049;-76
2023/06/24 02:29:47;;;;;;;2.78;2.00;;;;;;;;;;2072765;28;20034;-77
2023/06/24 02:31:09;;;;;;;2.08;1.98;;;;;;;;;;2074731;28;20483;-77
2023/06/24 02:32:28;;;;;;;1.85;1.75;;;;;;;;;;2062225;28;20391;-78
2023/06/24 02:33:47;;;;;;;2.58;1.85;;;;;;;;;;2070585;28;20767;-77
2023/06/24 02:35:07;;;;;;;1.88;1.73;;;;;;;;;;2073890;28;20034;-75
2023/06/24 02:36:26;;;;;;;2.13;1.92;;;;;;;;;;2064151;28;20058;-77
2023/06/24 02:37:45;;;;;;;1.80;1.70;;;;;;;;;;2070107;28;20017;-78
2023/06/24 02:39:03;;;;;;;2.10;2.00;;;;;;;;;;2075234;28;20030;-77
2023/06/24 02:40:22;;;;;;;2.08;1.77;;;;;;;;;;2063407;28;20022;-78
2023/06/24 02:41:44;;;;;;;1.95;1.60;;;;;;;;;;2059687;28;20105;-78
2023/06/24 02:43:03;;;;;;;2.20;2.00;;;;;;;;;;2063240;28;20108;-77
2023/06/24 02:44:22;;;;;;;3.03;1.90;;;;;;;;;;2071151;28;20034;-77
2023/06/24 02:45:41;;;;;;;1.80;1.70;;;;;;;;;;2067526;28;20057;-77
2023/06/24 02:47:00;;;;;;;1.67;1.58;;;;;;;;;;2071983;28;20057;-77
2023/06/24 02:48:20;;;;;;;3.40;1.70;;;;;;;;;;2075131;28;20026;-77
2023/06/24 02:49:39;;;;;;;1.75;1.65;;;;;;;;;;2072017;28;20044;-78
2023/06/24 02:50:59;;;;;;;2.00;1.80;;;;;;;;;;2070113;28;20033;-78
2023/06/24 02:52:18;;;;;;;2.05;1.88;;;;;;;;;;2074027;28;20026;-77
2023/06/24 02:53:40;;;;;;;2.65;1.60;;;;;;;;;;2075029;28;20042;-77
2023/06/24 02:54:59;;;;;;;1.63;1.50;;;;;;;;;;2074620;28;20026;-77
2023/06/24 02:56:20;;;;;;;2.13;1.95;;;;;;;;;;2072830;28;20109;-76
2023/06/24 02:57:40;;;;;;;2.05;1.90;;;;;;;;;;2064160;28;20026;-77
2023/06/24 02:58:59;;;;;;;3.60;1.85;;;;;;;;;;2071082;28;20029;-77
2023/06/24 03:00:18;;;;;;;1.40;1.40;;;;;;;;;;2073394;28;20042;-77
2023/06/24 03:01:45;;;;;;;2.15;1.95;;;;;;;;;;2065495;28;20026;-76
2023/06/24 03:03:17;;;;;;;1.60;1.50;;;;;;;;;;2074164;28;20148;-77
2023/06/24 03:04:38;;;;;;;1.60;1.35;;;;;;;;;;2062408;28;20029;-78
2023/06/24 03:05:57;;;;;;;1.60;1.50;;;;;;;;;;2061569;28;20030;-77
2023/06/24 03:07:20;;;;;;;1.75;1.65;;;;;;;;;;2070769;28;20503;-78
2023/06/24 03:08:39;;;;;;;3.28;1.92;;;;;;;;;;2065618;28;20499;-78
2023/06/24 03:09:58;;;;;;;1.90;1.45;;;;;;;;;;2062765;28;20030;-78
2023/06/24 03:11:17;;;;;;;1.88;1.55;;;;;;;;;;2066336;28;20038;-78
2023/06/24 03:12:36;;;;;;;3.15;1.50;;;;;;;;;;2065727;28;20030;-77
2023/06/24 03:13:55;;;;;;;3.25;1.77;;;;;;;;;;2072131;28;20025;-77
2023/06/24 03:15:13;;;;;;;1.70;1.60;;;;;;;;;;2064551;28;20588;-77
2023/06/24 03:16:33;;;;;;;1.92;1.73;;;;;;;;;;2068750;28;20041;-77
2023/06/24 03:17:52;;;;;;;1.52;1.42;;;;;;;;;;2073713;28;20022;-78
2023/06/24 03:19:11;;;;;;;1.60;1.50;;;;;;;;;;2065187;28;20034;-77
2023/06/24 03:20:38;;;;;;;1.60;1.50;;;;;;;;;;2063618;28;20120;-77
2023/06/24 03:21:57;;;;;;;1.60;1.50;;;;;;;;;;2062818;28;20101;-78
2023/06/24 03:23:16;;;;;;;2.22;1.58;;;;;;;;;;2069737;28;20022;-77
2023/06/24 03:24:35;;;;;;;1.73;1.63;;;;;;;;;;2074428;28;20034;-78
2023/06/24 03:25:54;;;;;;;2.38;1.67;;;;;;;;;;2074316;28;20033;-77
2023/06/24 03:27:13;;;;;;;1.73;1.63;;;;;;;;;;2065150;28;20454;-77
2023/06/24 03:28:32;;;;;;;1.75;1.65;;;;;;;;;;2061158;28;20030;-78
2023/06/24 03:29:51;;;;;;;2.47;1.63;;;;;;;;;;2072250;28;20026;-78
2023/06/24 03:31:10;;;;;;;1.73;1.50;;;;;;;;;;2074985;28;20030;-78
2023/06/24 03:32:29;;;;;;;1.60;1.50;;;;;;;;;;2075823;28;20394;-77
2023/06/24 03:33:48;;;;;;;3.03;1.80;;;;;;;;;;2076600;28;20586;-77
2023/06/24 03:35:08;;;;;;;1.80;1.67;;;;;;;;;;2076502;28;20034;-78
2023/06/24 03:36:27;;;;;;;1.55;1.33;;;;;;;;;;2074060;28;20562;-78
2023/06/24 03:37:46;;;;;;;1.88;1.40;;;;;;;;;;2074214;28;20026;-77
2023/06/24 03:39:05;;;;;;;2.28;1.55;;;;;;;;;;2075509;28;20124;-77
2023/06/24 03:40:24;;;;;;;1.42;1.42;;;;;;;;;;2065346;28;20038;-77
2023/06/24 03:41:43;;;;;;;1.30;1.30;;;;;;;;;;2070460;28;20031;-77
2023/06/24 03:43:02;;;;;;;1.83;1.70;;;;;;;;;;2075355;28;20022;-77
2023/06/24 03:44:21;;;;;;;1.48;1.38;;;;;;;;;;2067631;28;20030;-77
2023/06/24 03:45:40;;;;;;;1.42;1.25;;;;;;;;;;2062567;28;20022;-78
2023/06/24 03:46:58;;;;;;;1.40;1.30;;;;;;;;;;2069870;28;20062;-77
2023/06/24 03:48:17;;;;;;;1.20;1.10;;;;;;;;;;2072499;28;20468;-78
2023/06/24 03:49:36;;;;;;;3.05;1.33;;;;;;;;;;2068742;28;20115;-77
2023/06/24 03:50:55;;;;;;;3.47;1.20;;;;;;;;;;2071102;28;20411;-77
2023/06/24 03:52:13;;;;;;;3.63;1.20;;;;;;;;;;2066863;28;20030;-78
2023/06/24 03:53:34;;;;;;;1.15;1.13;;;;;;;;;;2062635;28;20614;-78
2023/06/24 03:54:53;;;;;;;1.70;1.50;;;;;;;;;;2073471;28;20033;-77
2023/06/24 03:56:12;;;;;;;1.27;1.17;;;;;;;;;;2073970;28;20101;-78
2023/06/24 03:57:31;;;;;;;1.42;1.10;;;;;;;;;;2074122;28;20478;-76
2023/06/24 03:58:50;;;;;;;2.00;1.23;;;;;;;;;;2076587;28;20022;-77
2023/06/24 04:00:14;;;;;;;1.27;1.17;;;;;;;;;;2065599;28;20030;-77
2023/06/24 04:01:33;;;;;;;2.47;1.30;;;;;;;;;;2066602;28;20023;-79
2023/06/24 04:02:53;;;;;;;1.35;1.17;;;;;;;;;;2063614;28;20021;-77
2023/06/24 04:04:11;;;;;;;1.20;1.10;;;;;;;;;;2066770;28;20053;-77
2023/06/24 04:05:30;;;;;;;1.95;1.17;;;;;;;;;;2072600;28;21798;-77
2023/06/24 04:06:49;;;;;;;1.60;1.50;;;;;;;;;;2066597;28;20415;-77
2023/06/24 04:08:09;;;;;;;1.45;1.33;;;;;;;;;;2071797;28;20042;-77
2023/06/24 04:09:29;;;;;;;1.90;1.33;;;;;;;;;;2075415;28;20038;-77
2023/06/24 04:10:48;;;;;;;1.20;1.10;;;;;;;;;;2066375;28;20042;-78
2023/06/24 04:12:07;;;;;;;1.52;1.40;;;;;;;;;;2067548;28;20034;-77
2023/06/24 04:13:26;;;;;;;3.97;1.30;;;;;;;;;;2076801;28;20041;-77
2023/06/24 04:14:45;;;;;;;1.30;1.20;;;;;;;;;;2067191;28;20030;-77
2023/06/24 04:16:04;;;;;;;4.13;1.50;;;;;;;;;;2063696;28;20082;-78
2023/06/24 04:17:23;;;;;;;1.33;1.15;;;;;;;;;;2063783;28;20038;-77
2023/06/24 04:18:42;;;;;;;2.20;1.10;;;;;;;;;;2071034;28;20033;-78
2023/06/24 04:20:04;;;;;;;2.00;1.05;;;;;;;;;;2074117;28;20033;-78
2023/06/24 04:21:23;;;;;;;2.55;1.55;;;;;;;;;;2065404;28;20065;-78
2023/06/24 04:22:42;;;;;;;1.67;1.20;;;;;;;;;;2071440;28;20382;-77
2023/06/24 04:24:01;;;;;;;1.73;1.17;;;;;;;;;;2074841;28;20419;-77
2023/06/24 04:25:19;;;;;;;1.52;1.23;;;;;;;;;;2066417;28;20038;-77
2023/06/24 04:26:39;;;;;;;1.40;1.30;;;;;;;;;;2060727;28;20113;-78
2023/06/24 04:27:57;;;;;;;1.30;1.10;;;;;;;;;;2062699;28;20097;-78
2023/06/24 04:29:16;;;;;;;3.53;1.30;;;;;;;;;;2063385;28;20027;-79
2023/06/24 04:30:35;;;;;;;1.77;1.10;;;;;;;;;;2065716;28;20070;-78
2023/06/24 04:31:55;;;;;;;2.70;1.20;;;;;;;;;;2063888;28;20022;-77
2023/06/24 04:33:14;;;;;;;1.40;1.25;;;;;;;;;;2070572;28;20034;-78
2023/06/24 04:34:33;;;;;;;1.73;1.38;;;;;;;;;;2076892;28;20395;-78
2023/06/24 04:35:52;;;;;;;3.13;1.08;;;;;;;;;;2076407;28;20120;-77
2023/06/24 04:37:11;;;;;;;3.17;1.50;;;;;;;;;;2074157;28;20025;-77
2023/06/24 04:38:30;;;;;;;2.08;1.48;;;;;;;;;;2074654;28;20033;-77
2023/06/24 04:39:49;;;;;;;2.45;0.93;;;;;;;;;;2064649;28;20030;-77
2023/06/24 04:41:07;;;;;;;3.88;1.05;;;;;;;;;;2063771;28;20043;-77
2023/06/24 04:42:26;;;;;;;1.60;0.95;;;;;;;;;;2072992;28;20120;-78
2023/06/24 04:43:45;;;;;;;0.98;0.95;;;;;;;;;;2073933;28;20093;-77
2023/06/24 04:45:10;;;;;;;2.92;1.30;;;;;;;;;;2074050;28;20018;-77
2023/06/24 04:46:29;;;;;;;1.45;1.10;;;;;;;;;;2065814;28;20030;-77
2023/06/24 04:47:49;;;;;;;2.15;1.10;;;;;;;;;;2062075;28;20026;-78
2023/06/24 04:49:08;;;;;;;1.83;0.95;;;;;;;;;;2073157;28;20017;-78
2023/06/24 04:50:27;;;;;;;2.47;1.20;;;;;;;;;;2075460;28;20041;-78
2023/06/24 04:51:46;;;;;;;1.40;0.98;;;;;;;;;;2075346;28;20034;-78
2023/06/24 04:53:06;;;;;;;2.53;1.10;;;;;;;;;;2075235;28;20045;-77
2023/06/24 04:54:25;;;;;;;2.78;1.35;;;;;;;;;;2068435;28;20038;-77
2023/06/24 04:55:44;;;;;;;1.85;1.10;;;;;;;;;;2062341;28;20030;-77
2023/06/24 04:57:06;;;;;;;1.20;1.02;;;;;;;;;;2061602;28;20030;-78
2023/06/24 04:58:25;;;;;;;2.50;1.17;;;;;;;;;;2071419;28;20072;-77
2023/06/24 04:59:44;;;;;;;2.13;1.17;;;;;;;;;;2068221;28;20603;-78
2023/06/24 05:01:03;;;;;;;3.72;1.17;;;;;;;;;;2073366;28;20053;-78
2023/06/24 05:02:22;;;;;;;1.85;1.20;;;;;;;;;;2066691;28;20042;-78
2023/06/24 05:03:41;;;;;;;1.33;0.88;;;;;;;;;;2070480;28;20022;-78
2023/06/24 05:05:00;;;;;;;2.55;1.13;;;;;;;;;;2072730;28;20049;-78
2023/06/24 05:06:19;;;;;;;1.75;1.05;;;;;;;;;;2066376;28;20030;-78
2023/06/24 05:07:39;;;;;;;1.38;1.23;;;;;;;;;;2071716;28;20030;-77
2023/06/24 05:08:58;;;;;;;2.50;1.00;;;;;;;;;;2066109;28;20526;-78
2023/06/24 05:10:17;;;;;;;2.97;0.95;;;;;;;;;;2071541;28;20033;-79
2023/06/24 05:11:36;;;;;;;1.33;0.90;;;;;;;;;;2066587;28;20038;-78
2023/06/24 05:12:55;;;;;;;3.75;1.40;;;;;;;;;;2064774;28;20054;-78
2023/06/24 05:14:13;;;;;;;1.95;1.13;;;;;;;;;;2070956;28;20513;-77
2023/06/24 05:15:32;;;;;;;1.05;0.80;;;;;;;;;;2075397;28;20418;-77
2023/06/24 05:16:52;;;;;;;1.83;0.90;;;;;;;;;;2066569;28;20038;-77
2023/06/24 05:18:10;;;;;;;1.85;1.00;;;;;;;;;;2061754;28;20062;-78
2023/06/24 05:19:29;;;;;;;2.40;1.30;;;;;;;;;;2065850;28;20039;-78
2023/06/24 05:20:48;;;;;;;2.63;1.20;;;;;;;;;;2063385;28;20042;-78
2023/06/24 05:22:08;;;;;;;1.58;0.77;;;;;;;;;;2071730;28;20029;-78
2023/06/24 05:23:28;;;;;;;1.63;1.00;;;;;;;;;;2073940;28;20601;-78
2023/06/24 05:24:47;;;;;;;1.70;1.13;;;;;;;;;;2065393;28;20411;-78
2023/06/24 05:26:05;;;;;;;1.48;0.90;;;;;;;;;;2067063;28;20384;-77
2023/06/24 05:27:24;;;;;;;3.10;0.90;;;;;;;;;;2064547;28;20030;-77
2023/06/24 05:28:43;;;;;;;3.33;1.20;;;;;;;;;;2067073;28;20387;-77
2023/06/24 05:30:02;;;;;;;2.00;1.20;;;;;;;;;;2064541;28;20037;-77
2023/06/24 05:31:21;;;;;;;1.65;1.00;;;;;;;;;;2069672;28;20033;-77
2023/06/24 05:32:40;;;;;;;2.28;1.00;;;;;;;;;;2065373;28;20038;-79
2023/06/24 05:34:00;;;;;;;1.75;0.93;;;;;;;;;;2070803;28;20030;-77
2023/06/24 05:35:19;;;;;;;1.55;1.00;;;;;;;;;;2066466;28;20066;-77
2023/06/24 05:36:37;;;;;;;1.23;0.75;;;;;;;;;;2066473;28;20034;-77
2023/06/24 05:37:56;;;;;;;2.13;0.77;;;;;;;;;;2075440;28;20845;-79
2023/06/24 05:39:16;;;;;;;1.00;0.80;;;;;;;;;;2074872;28;20030;-78
2023/06/24 05:40:36;;;;;;;4.40;0.98;;;;;;;;;;2074298;28;20029;-77
2023/06/24 05:41:54;;;;;;;2.60;1.17;;;;;;;;;;2066144;28;20026;-78
2023/06/24 05:43:13;;;;;;;1.83;1.08;;;;;;;;;;2070387;28;20026;-79
2023/06/24 05:44:33;;;;;;;2.65;0.80;;;;;;;;;;2074667;28;20030;-78
2023/06/24 05:45:52;;;;;;;1.77;1.33;;;;;;;;;;2068743;28;20482;-80
2023/06/24 05:47:11;;;;;;;1.92;0.90;;;;;;;;;;2065269;28;20022;-80
2023/06/24 05:48:30;;;;;;;1.40;0.88;;;;;;;;;;2072946;28;20033;-80
2023/06/24 05:49:49;;;;;;;0.95;0.70;;;;;;;;;;2064825;28;20030;-81
2023/06/24 05:51:08;;;;;;;2.22;0.98;;;;;;;;;;2063358;28;20035;-80
2023/06/24 05:52:29;;;;;;;2.20;1.00;;;;;;;;;;2063954;28;20035;-80
2023/06/24 05:53:48;;;;;;;3.00;1.17;;;;;;;;;;2072217;28;20073;-80
2023/06/24 05:55:07;;;;;;;1.63;1.02;;;;;;;;;;2072873;28;20021;-78
2023/06/24 05:56:26;;;;;;;1.25;0.93;;;;;;;;;;2065227;28;20030;-79
2023/06/24 05:57:45;;;;;;;2.08;0.90;;;;;;;;;;2060076;28;20514;-79
2023/06/24 05:59:04;;;;;;;1.75;0.88;;;;;;;;;;2061483;28;20606;-79
2023/06/24 06:00:24;;;;;;;3.22;1.05;;;;;;;;;;2068425;28;20096;-79
2023/06/24 06:01:43;;;;;;;0.98;0.82;;;;;;;;;;2064556;28;20105;-78
2023/06/24 06:03:01;;;;;;;1.08;0.90;;;;;;;;;;2067893;28;20383;-79
2023/06/24 06:04:20;;;;;;;2.13;1.13;;;;;;;;;;2076809;28;20030;-78
2023/06/24 06:05:39;;;;;;;1.30;1.08;;;;;;;;;;2066865;28;20034;-78
2023/06/24 06:06:58;;;;;;;1.60;1.15;;;;;;;;;;2071271;28;20025;-81
2023/06/24 06:08:17;;;;;;;0.70;0.57;;;;;;;;;;2065160;28;20031;-78
2023/06/24 06:09:36;;;;;;;1.45;0.90;;;;;;;;;;2061500;28;20162;-78
2023/06/24 06:10:55;;;;;;;2.55;1.10;;;;;;;;;;2061658;28;20034;-78
2023/06/24 06:12:14;;;;;;;4.70;1.08;;;;;;;;;;2065236;28;20058;-78
2023/06/24 06:13:33;;;;;;;2.78;1.10;;;;;;;;;;2071033;28;20038;-78
2023/06/24 06:14:51;;;;;;;1.13;0.70;;;;;;;;;;2073086;28;20026;-77
2023/06/24 06:16:10;;;;;;;1.90;0.70;;;;;;;;;;2062292;28;20034;-79
2023/06/24 06:17:29;;;;;;;2.08;1.00;;;;;;;;;;2061138;28;20027;-78
2023/06/24 06:18:48;;;;;;;1.42;0.80;;;;;;;;;;2068786;28;20323;-78
2023/06/24 06:20:07;;;;;;;1.30;0.98;;;;;;;;;;2064881;28;20057;-79
2023/06/24 06:21:26;;;;;;;1.38;1.02;;;;;;;;;;2070680;28;20038;-79
2023/06/24 06:22:45;;;;;;;0.93;0.82;;;;;;;;;;2070123;28;20042;-79
2023/06/24 06:24:04;;;;;;;0.82;0.70;;;;;;;;;;2072844;28;20058;-78
2023/06/24 06:25:23;;;;;;;1.00;0.80;;;;;;;;;;2065815;28;20025;-79
2023/06/24 06:26:43;;;;;;;1.85;0.70;;;;;;;;;;2063066;28;20027;-77
2023/06/24 06:28:04;;;;;;;2.13;1.13;;;;;;;;;;2062282;28;20891;-83
2023/06/24 06:29:23;;;;;;;1.23;0.70;;;;;;;;;;2065846;28;20097;-78
2023/06/24 06:30:43;;;;;;;1.77;1.13;;;;;;;;;;2064173;28;20023;-79
2023/06/24 06:32:02;;;;;;;1.13;1.02;;;;;;;;;;2061784;28;20160;-80
2023/06/24 06:33:20;;;;;;;1.23;0.98;;;;;;;;;;2068581;28;20523;-79
2023/06/24 06:34:39;;;;;;;1.20;0.90;;;;;;;;;;2073889;28;20506;-78
2023/06/24 06:35:58;;;;;;;2.00;0.88;;;;;;;;;;2064484;28;20039;-79
2023/06/24 06:37:17;;;;;;;2.03;0.80;;;;;;;;;;2067218;28;20758;-78
2023/06/24 06:38:37;;;;;;;0.73;0.70;;;;;;;;;;2065323;28;20503;-79
2023/06/24 06:39:55;;;;;;;1.05;0.95;;;;;;;;;;2070922;28;20037;-79
2023/06/24 06:41:14;;;;;;;0.77;0.70;;;;;;;;;;2063430;28;20027;-78
2023/06/24 06:42:34;;;;;;;3.42;1.08;;;;;;;;;;2061666;28;20026;-78
2023/06/24 06:43:53;;;;;;;3.05;1.15;;;;;;;;;;2062197;28;20038;-78
2023/06/24 06:45:12;;;;;;;1.70;1.08;;;;;;;;;;2063645;28;20104;-77
2023/06/24 06:46:31;;;;;;;0.90;0.70;;;;;;;;;;2070967;28;20503;-78
2023/06/24 06:47:50;;;;;;;1.13;0.85;;;;;;;;;;2065353;28;20129;-78
2023/06/24 06:49:09;;;;;;;1.30;1.20;;;;;;;;;;2070175;28;20034;-79
2023/06/24 06:50:28;;;;;;;1.13;1.00;;;;;;;;;;2065253;28;20031;-77
2023/06/24 06:51:47;;;;;;;1.50;1.08;;;;;;;;;;2061490;28;20034;-78
2023/06/24 06:53:06;;;;;;;1.55;1.23;;;;;;;;;;2068852;28;20627;-78
2023/06/24 06:54:25;;;;;;;1.35;0.70;;;;;;;;;;2070360;28;21711;-78
2023/06/24 06:55:44;;;;;;;2.60;0.80;;;;;;;;;;2062843;28;20034;-77
2023/06/24 06:57:03;;;;;;;1.25;0.90;;;;;;;;;;2061993;28;20026;-78
2023/06/24 06:58:22;;;;;;;1.13;0.90;;;;;;;;;;2061971;28;20051;-78
2023/06/24 06:59:41;;;;;;;1.75;0.80;;;;;;;;;;2068114;28;20116;-77
2023/06/24 07:01:04;;;;;;;4.03;1.05;;;;;;;;;;2063392;28;20034;-76
2023/06/24 07:02:23;;;;;;;1.98;0.88;;;;;;;;;;2061800;28;20018;-80
2023/06/24 07:03:42;;;;;;;1.42;0.80;;;;;;;;;;2054638;28;20035;-80
2023/06/24 07:05:02;;;;;;;1.75;0.90;;;;;;;;;;2061342;28;20034;-81
2023/06/24 07:06:21;;;;;;;1.58;0.90;;;;;;;;;;2065577;28;20482;-85
2023/06/24 07:07:40;;;;;;;1.65;1.00;;;;;;;;;;2067654;28;20034;-84
2023/06/24 07:09:00;;;;;;;1.77;1.00;;;;;;;;;;2061986;28;20576;-82
2023/06/24 07:10:18;;;;;;;2.20;0.60;;;;;;;;;;2060431;28;20038;-88
2023/06/24 07:11:37;;;;;;;1.48;0.73;;;;;;;;;;2056225;28;20404;-83
2023/06/24 07:12:58;;;;;;;2.47;0.90;;;;;;;;;;2059320;28;20030;-83
2023/06/24 07:14:16;;;;;;;0.95;0.77;;;;;;;;;;2068946;28;20029;-87
2023/06/24 07:15:35;;;;;;;1.60;1.02;;;;;;;;;;2065272;28;20062;-89
2023/06/24 07:16:54;;;;;;;1.33;0.82;;;;;;;;;;2053610;28;20027;-82
2023/06/24 07:18:13;;;;;;;0.95;0.95;;;;;;;;;;2064739;28;20038;-84
2023/06/24 07:19:32;;;;;;;1.15;0.95;;;;;;;;;;2066410;28;20121;-84
2023/06/24 07:20:53;;;;;;;1.65;0.85;;;;;;;;;;2061921;28;20046;-80
2023/06/24 07:22:12;;;;;;;2.65;1.08;;;;;;;;;;2063212;28;20057;-81
2023/06/24 07:23:31;;;;;;;1.77;0.90;;;;;;;;;;2060814;28;20101;-81
2023/06/24 07:24:50;;;;;;;3.15;0.70;;;;;;;;;;2071524;28;20109;-83
2023/06/24 07:26:09;;;;;;;1.33;0.95;;;;;;;;;;2073522;28;20041;-91
2023/06/24 07:27:28;;;;;;;1.17;1.02;;;;;;;;;;2069985;28;20042;-89
2023/06/24 07:28:47;;;;;;;2.75;0.70;;;;;;;;;;2061631;28;20026;-85
2023/06/24 07:30:06;;;;;;;1.10;0.88;;;;;;;;;;2060986;28;20038;-84
2023/06/24 07:31:25;;;;;;;1.98;0.80;;;;;;;;;;2069090;28;20061;-85
2023/06/24 07:32:44;;;;;;;1.10;1.10;;;;;;;;;;2065611;28;20038;-85
2023/06/24 07:34:04;;;;;;;1.17;0.77;;;;;;;;;;2062247;28;20744;-84
2023/06/24 07:35:22;;;;;;;0.80;0.80;;;;;;;;;;2069719;28;20038;-85
2023/06/24 07:36:41;;;;;;;1.50;0.90;;;;;;;;;;2073070;28;20030;-84
2023/06/24 07:38:00;;;;;;;0.88;0.68;;;;;;;;;;2064824;28;20031;-83
2023/06/24 07:39:19;;;;;;;3.30;0.90;;;;;;;;;;2070001;28;20033;-83
2023/06/24 07:40:38;;;;;;;1.08;0.80;;;;;;;;;;2074745;28;20357;-89
2023/06/24 07:41:58;;;;;;;2.08;0.90;;;;;;;;;;2065585;28;21027;-83
2023/06/24 07:43:17;;;;;;;3.80;1.00;;;;;;;;;;2062334;28;20027;-85
2023/06/24 07:44:38;;;;;;;1.30;1.00;;;;;;;;;;2062681;28;20026;-84
2023/06/24 07:45:59;;;;;;;1.75;0.80;;;;;;;;;;2059790;28;20062;-83
2023/06/24 07:47:21;;;;;;;1.15;1.00;;;;;;;;;;2064700;28;20053;-84
2023/06/24 07:48:40;;;;;;;1.38;0.70;;;;;;;;;;2072221;28;20045;-86
2023/06/24 07:49:59;;;;;;;0.95;0.93;;;;;;;;;;2066044;28;21390;-85
2023/06/24 07:51:18;;;;;;;0.77;0.77;;;;;;;;;;2064240;28;20041;-87
2023/06/24 07:52:38;;;;;;;0.80;0.80;;;;;;;;;;2065457;28;20035;-85
2023/06/24 07:53:57;;;;;;;2.30;0.93;;;;;;;;;;2061916;28;20077;-84
2023/06/24 07:55:16;;;;;;;1.08;1.00;;;;;;;;;;2064729;28;20034;-85
2023/06/24 07:56:35;;;;;;;2.10;0.85;;;;;;;;;;2064011;28;20019;-86
2023/06/24 07:57:58;;;;;;;1.23;1.00;;;;;;;;;;2063407;28;20383;-86
2023/06/24 07:59:17;;;;;;;1.77;0.80;;;;;;;;;;2061783;28;20031;-87